sensor_id;sensor_type;location;lat;lon;timestamp;pressure;altitude;pressure_sealevel;temperature;humidity
72560;BME280;62987;52.382;9.752;2022-09-09T00:01:04;100224.97;;;14.86;89.53
72560;BME280;62987;52.382;9.752;2022-09-09T00:03:41;100215.00;;;14.88;89.30
72560;BME280;62987;52.382;9.752;2022-09-09T00:06:17;100223.03;;;14.88;89.50
72560;BME280;62987;52.382;9.752;2022-09-09T00:08:54;100223.78;;;14.77;89.37
72560;BME280;62987;52.382;9.752;2022-09-09T00:11:29;100225.69;;;14.75;89.48
72560;BME280;62987;52.382;9.752;2022-09-09T00:14:03;100223.00;;;14.75;89.54
72560;BME280;62987;52.382;9.752;2022-09-09T00:16:38;100227.41;;;14.76;89.06
72560;BME280;62987;52.382;9.752;2022-09-09T00:19:16;100219.03;;;14.68;89.75
72560;BME280;62987;52.382;9.752;2022-09-09T00:21:54;100218.25;;;14.66;89.30
72560;BME280;62987;52.382;9.752;2022-09-09T00:24:28;100219.66;;;14.72;89.71
72560;BME280;62987;52.382;9.752;2022-09-09T00:27:01;100222.56;;;14.69;89.46
72560;BME280;62987;52.382;9.752;2022-09-09T00:29:36;100220.84;;;14.68;89.20
72560;BME280;62987;52.382;9.752;2022-09-09T00:32:13;100220.31;;;14.63;89.23
72560;BME280;62987;52.382;9.752;2022-09-09T00:34:48;100214.84;;;14.64;89.38
72560;BME280;62987;52.382;9.752;2022-09-09T00:37:18;100216.09;;;14.59;88.86
72560;BME280;62987;52.382;9.752;2022-09-09T00:39:48;100216.22;;;14.57;89.42
72560;BME280;62987;52.382;9.752;2022-09-09T00:42:23;100222.72;;;14.53;89.33
72560;BME280;62987;52.382;9.752;2022-09-09T00:44:53;100206.66;;;14.53;89.47
72560;BME280;62987;52.382;9.752;2022-09-09T00:47:44;100219.75;;;14.58;89.27
72560;BME280;62987;52.382;9.752;2022-09-09T00:50:35;100218.44;;;14.51;88.66
72560;BME280;62987;52.382;9.752;2022-09-09T00:53:16;100211.16;;;14.53;88.85
72560;BME280;62987;52.382;9.752;2022-09-09T00:55:50;100208.88;;;14.47;89.20
72560;BME280;62987;52.382;9.752;2022-09-09T00:58:21;100214.22;;;14.47;89.30
72560;BME280;62987;52.382;9.752;2022-09-09T01:00:52;100214.13;;;14.48;89.27
72560;BME280;62987;52.382;9.752;2022-09-09T01:03:33;100223.34;;;14.44;89.76
72560;BME280;62987;52.382;9.752;2022-09-09T01:06:12;100218.16;;;14.41;89.25
72560;BME280;62987;52.382;9.752;2022-09-09T01:08:56;100226.19;;;14.41;89.04
72560;BME280;62987;52.382;9.752;2022-09-09T01:11:33;100225.56;;;14.37;89.06
72560;BME280;62987;52.382;9.752;2022-09-09T01:14:14;100227.28;;;14.38;89.24
72560;BME280;62987;52.382;9.752;2022-09-09T01:16:47;100212.81;;;14.27;88.96
72560;BME280;62987;52.382;9.752;2022-09-09T01:19:24;100220.34;;;14.34;89.14
72560;BME280;62987;52.382;9.752;2022-09-09T01:22:03;100218.00;;;14.30;89.01
72560;BME280;62987;52.382;9.752;2022-09-09T01:24:38;100213.59;;;14.29;89.20
72560;BME280;62987;52.382;9.752;2022-09-09T01:27:18;100210.16;;;14.27;89.52
72560;BME280;62987;52.382;9.752;2022-09-09T01:29:47;100212.41;;;14.33;89.16
72560;BME280;62987;52.382;9.752;2022-09-09T01:32:39;100204.81;;;14.27;89.30
72560;BME280;62987;52.382;9.752;2022-09-09T01:35:12;100190.47;;;14.28;89.21
72560;BME280;62987;52.382;9.752;2022-09-09T01:37:43;100195.81;;;14.28;89.65
72560;BME280;62987;52.382;9.752;2022-09-09T01:40:11;100201.00;;;14.31;89.90
72560;BME280;62987;52.382;9.752;2022-09-09T01:42:41;100202.13;;;14.27;89.62
72560;BME280;62987;52.382;9.752;2022-09-09T01:45:09;100213.81;;;14.26;89.53
72560;BME280;62987;52.382;9.752;2022-09-09T01:47:37;100208.47;;;14.26;89.75
72560;BME280;62987;52.382;9.752;2022-09-09T01:50:24;100205.94;;;14.37;89.21
72560;BME280;62987;52.382;9.752;2022-09-09T01:52:57;100207.75;;;14.36;87.99
72560;BME280;62987;52.382;9.752;2022-09-09T01:55:31;100209.28;;;14.40;88.67
72560;BME280;62987;52.382;9.752;2022-09-09T01:58:14;100203.84;;;14.42;88.27
72560;BME280;62987;52.382;9.752;2022-09-09T02:00:56;100212.81;;;14.41;88.02
72560;BME280;62987;52.382;9.752;2022-09-09T02:03:29;100206.88;;;14.36;88.49
72560;BME280;62987;52.382;9.752;2022-09-09T02:06:25;100209.97;;;14.44;88.28
72560;BME280;62987;52.382;9.752;2022-09-09T02:09:01;100211.28;;;14.37;88.72
72560;BME280;62987;52.382;9.752;2022-09-09T02:11:32;100202.88;;;14.43;88.19
72560;BME280;62987;52.382;9.752;2022-09-09T02:14:30;100206.00;;;14.50;87.57
72560;BME280;62987;52.382;9.752;2022-09-09T02:17:06;100204.28;;;14.49;87.63
72560;BME280;62987;52.382;9.752;2022-09-09T02:20:03;100208.00;;;14.46;87.70
72560;BME280;62987;52.382;9.752;2022-09-09T02:22:43;100213.50;;;14.45;87.86
72560;BME280;62987;52.382;9.752;2022-09-09T02:25:17;100207.38;;;14.43;87.68
72560;BME280;62987;52.382;9.752;2022-09-09T02:27:50;100207.06;;;14.47;87.56
72560;BME280;62987;52.382;9.752;2022-09-09T02:30:20;100204.38;;;14.47;87.97
72560;BME280;62987;52.382;9.752;2022-09-09T02:32:56;100209.00;;;14.45;87.75
72560;BME280;62987;52.382;9.752;2022-09-09T02:35:52;100197.03;;;14.51;87.26
72560;BME280;62987;52.382;9.752;2022-09-09T02:38:32;100198.44;;;14.56;87.43
72560;BME280;62987;52.382;9.752;2022-09-09T02:41:08;100194.91;;;14.56;87.12
72560;BME280;62987;52.382;9.752;2022-09-09T02:43:37;100195.34;;;14.62;86.77
72560;BME280;62987;52.382;9.752;2022-09-09T02:46:23;100206.25;;;14.59;87.49
72560;BME280;62987;52.382;9.752;2022-09-09T02:48:59;100196.13;;;14.64;87.03
72560;BME280;62987;52.382;9.752;2022-09-09T02:51:40;100196.56;;;14.71;86.83
72560;BME280;62987;52.382;9.752;2022-09-09T02:54:17;100190.63;;;14.66;86.82
72560;BME280;62987;52.382;9.752;2022-09-09T02:56:52;100200.28;;;14.68;87.08
72560;BME280;62987;52.382;9.752;2022-09-09T02:59:27;100200.28;;;14.68;86.99
72560;BME280;62987;52.382;9.752;2022-09-09T03:01:57;100200.28;;;14.68;86.97
72560;BME280;62987;52.382;9.752;2022-09-09T03:04:26;100205.66;;;14.68;86.74
72560;BME280;62987;52.382;9.752;2022-09-09T03:06:55;100208.00;;;14.73;86.74
72560;BME280;62987;52.382;9.752;2022-09-09T03:09:23;100206.53;;;14.82;86.97
72560;BME280;62987;52.382;9.752;2022-09-09T03:11:53;100211.78;;;14.83;86.97
72560;BME280;62987;52.382;9.752;2022-09-09T03:14:23;100215.66;;;14.92;86.90
72560;BME280;62987;52.382;9.752;2022-09-09T03:16:52;100215.88;;;14.89;87.21
72560;BME280;62987;52.382;9.752;2022-09-09T03:19:21;100216.63;;;14.91;86.82
72560;BME280;62987;52.382;9.752;2022-09-09T03:21:50;100225.41;;;14.93;87.04
72560;BME280;62987;52.382;9.752;2022-09-09T03:24:18;100212.13;;;15.04;86.33
72560;BME280;62987;52.382;9.752;2022-09-09T03:26:46;100201.75;;;15.12;86.28
72560;BME280;62987;52.382;9.752;2022-09-09T03:29:16;100208.06;;;15.11;85.86
72560;BME280;62987;52.382;9.752;2022-09-09T03:31:45;100209.59;;;15.15;86.32
72560;BME280;62987;52.382;9.752;2022-09-09T03:34:13;100207.34;;;15.09;86.05
72560;BME280;62987;52.382;9.752;2022-09-09T03:36:43;100205.28;;;15.12;86.03
72560;BME280;62987;52.382;9.752;2022-09-09T03:39:11;100212.28;;;15.15;85.89
72560;BME280;62987;52.382;9.752;2022-09-09T03:41:42;100215.16;;;15.12;86.15
72560;BME280;62987;52.382;9.752;2022-09-09T03:44:12;100216.09;;;15.11;86.32
72560;BME280;62987;52.382;9.752;2022-09-09T03:46:41;100217.94;;;15.10;86.46
72560;BME280;62987;52.382;9.752;2022-09-09T03:49:09;100213.00;;;15.17;86.38
72560;BME280;62987;52.382;9.752;2022-09-09T03:51:37;100205.53;;;15.22;85.96
72560;BME280;62987;52.382;9.752;2022-09-09T03:54:10;100213.44;;;15.24;86.11
72560;BME280;62987;52.382;9.752;2022-09-09T03:56:38;100214.31;;;15.24;86.40
72560;BME280;62987;52.382;9.752;2022-09-09T03:59:11;100207.25;;;15.23;86.09
72560;BME280;62987;52.382;9.752;2022-09-09T04:01:41;100209.19;;;15.34;85.96
72560;BME280;62987;52.382;9.752;2022-09-09T04:04:09;100208.50;;;15.30;85.92
72560;BME280;62987;52.382;9.752;2022-09-09T04:06:38;100212.91;;;15.31;85.84
72560;BME280;62987;52.382;9.752;2022-09-09T04:09:06;100213.16;;;15.28;85.74
72560;BME280;62987;52.382;9.752;2022-09-09T04:11:36;100212.19;;;15.29;85.82
72560;BME280;62987;52.382;9.752;2022-09-09T04:14:03;100203.59;;;15.24;86.18
72560;BME280;62987;52.382;9.752;2022-09-09T04:16:33;100209.50;;;15.29;86.17
72560;BME280;62987;52.382;9.752;2022-09-09T04:19:02;100210.25;;;15.31;85.96
72560;BME280;62987;52.382;9.752;2022-09-09T04:21:31;100209.06;;;15.35;86.18
72560;BME280;62987;52.382;9.752;2022-09-09T04:24:00;100208.09;;;15.36;85.86
72560;BME280;62987;52.382;9.752;2022-09-09T04:26:28;100211.31;;;15.41;85.70
72560;BME280;62987;52.382;9.752;2022-09-09T04:28:58;100207.69;;;15.42;85.67
72560;BME280;62987;52.382;9.752;2022-09-09T04:31:25;100216.47;;;15.44;85.46
72560;BME280;62987;52.382;9.752;2022-09-09T04:33:55;100213.88;;;15.43;85.36
72560;BME280;62987;52.382;9.752;2022-09-09T04:36:24;100220.09;;;15.43;85.36
72560;BME280;62987;52.382;9.752;2022-09-09T04:38:57;100220.53;;;15.50;85.61
72560;BME280;62987;52.382;9.752;2022-09-09T04:41:25;100213.94;;;15.55;85.09
72560;BME280;62987;52.382;9.752;2022-09-09T04:43:54;100216.38;;;15.58;85.15
72560;BME280;62987;52.382;9.752;2022-09-09T04:46:23;100220.25;;;15.54;84.79
72560;BME280;62987;52.382;9.752;2022-09-09T04:48:52;100226.75;;;15.50;85.21
72560;BME280;62987;52.382;9.752;2022-09-09T04:51:22;100218.53;;;15.53;85.32
72560;BME280;62987;52.382;9.752;2022-09-09T04:53:51;100230.41;;;15.62;85.07
72560;BME280;62987;52.382;9.752;2022-09-09T04:56:21;100231.06;;;15.66;85.02
72560;BME280;62987;52.382;9.752;2022-09-09T04:58:54;100226.78;;;15.63;85.20
72560;BME280;62987;52.382;9.752;2022-09-09T05:01:32;100230.56;;;15.61;85.26
72560;BME280;62987;52.382;9.752;2022-09-09T05:04:03;100231.84;;;15.55;85.52
72560;BME280;62987;52.382;9.752;2022-09-09T05:06:32;100234.63;;;15.53;85.18
72560;BME280;62987;52.382;9.752;2022-09-09T05:09:03;100228.72;;;15.61;85.36
72560;BME280;62987;52.382;9.752;2022-09-09T05:11:32;100234.81;;;15.63;85.58
72560;BME280;62987;52.382;9.752;2022-09-09T05:14:11;100235.78;;;15.62;85.39
72560;BME280;62987;52.382;9.752;2022-09-09T05:16:41;100234.72;;;15.65;85.52
72560;BME280;62987;52.382;9.752;2022-09-09T05:19:11;100236.63;;;15.63;84.97
72560;BME280;62987;52.382;9.752;2022-09-09T05:21:44;100232.13;;;15.63;84.83
72560;BME280;62987;52.382;9.752;2022-09-09T05:24:16;100230.84;;;15.69;84.59
72560;BME280;62987;52.382;9.752;2022-09-09T05:26:45;100241.69;;;15.80;84.33
72560;BME280;62987;52.382;9.752;2022-09-09T05:29:15;100238.78;;;15.83;84.74
72560;BME280;62987;52.382;9.752;2022-09-09T05:31:47;100244.56;;;15.77;84.68
72560;BME280;62987;52.382;9.752;2022-09-09T05:34:19;100238.25;;;15.78;85.04
72560;BME280;62987;52.382;9.752;2022-09-09T05:36:48;100241.03;;;15.76;84.63
72560;BME280;62987;52.382;9.752;2022-09-09T05:39:16;100246.72;;;15.84;84.22
72560;BME280;62987;52.382;9.752;2022-09-09T05:41:45;100240.06;;;15.90;84.23
72560;BME280;62987;52.382;9.752;2022-09-09T05:44:13;100214.75;;;15.69;83.92
72560;BME280;62987;52.382;9.752;2022-09-09T05:46:42;100247.16;;;15.78;84.30
72560;BME280;62987;52.382;9.752;2022-09-09T05:49:13;100249.72;;;15.80;84.21
72560;BME280;62987;52.382;9.752;2022-09-09T05:51:43;100251.13;;;15.85;84.01
72560;BME280;62987;52.382;9.752;2022-09-09T05:54:13;100246.72;;;15.84;83.89
72560;BME280;62987;52.382;9.752;2022-09-09T05:56:46;100250.88;;;15.88;83.73
72560;BME280;62987;52.382;9.752;2022-09-09T05:59:18;100245.84;;;15.96;83.71
72560;BME280;62987;52.382;9.752;2022-09-09T06:01:46;100219.28;;;15.81;83.27
72560;BME280;62987;52.382;9.752;2022-09-09T06:04:22;100264.81;;;16.06;83.84
72560;BME280;62987;52.382;9.752;2022-09-09T06:06:51;100272.75;;;16.20;83.46
72560;BME280;62987;52.382;9.752;2022-09-09T06:09:21;100259.94;;;16.24;84.24
72560;BME280;62987;52.382;9.752;2022-09-09T06:11:49;100265.63;;;16.32;83.73
72560;BME280;62987;52.382;9.752;2022-09-09T06:14:19;100256.91;;;16.28;84.05
72560;BME280;62987;52.382;9.752;2022-09-09T06:16:50;100266.59;;;16.31;84.38
72560;BME280;62987;52.382;9.752;2022-09-09T06:19:24;100261.25;;;16.18;85.13
72560;BME280;62987;52.382;9.752;2022-09-09T06:21:55;100264.47;;;16.23;84.82
72560;BME280;62987;52.382;9.752;2022-09-09T06:24:23;100270.28;;;16.17;84.55
72560;BME280;62987;52.382;9.752;2022-09-09T06:26:51;100260.56;;;16.27;84.15
72560;BME280;62987;52.382;9.752;2022-09-09T06:29:25;100269.59;;;16.39;84.49
72560;BME280;62987;52.382;9.752;2022-09-09T06:31:53;100264.41;;;16.36;84.46
72560;BME280;62987;52.382;9.752;2022-09-09T06:34:25;100265.91;;;16.40;83.91
72560;BME280;62987;52.382;9.752;2022-09-09T06:36:56;100266.75;;;16.40;83.99
72560;BME280;62987;52.382;9.752;2022-09-09T06:39:29;100265.34;;;16.48;84.23
72560;BME280;62987;52.382;9.752;2022-09-09T06:41:58;100264.38;;;16.49;84.87
72560;BME280;62987;52.382;9.752;2022-09-09T06:44:44;100262.97;;;16.56;84.88
72560;BME280;62987;52.382;9.752;2022-09-09T06:47:21;100256.22;;;16.50;85.94
72560;BME280;62987;52.382;9.752;2022-09-09T06:49:51;100259.25;;;16.46;85.30
72560;BME280;62987;52.382;9.752;2022-09-09T06:52:19;100253.28;;;16.53;85.82
72560;BME280;62987;52.382;9.752;2022-09-09T06:54:47;100251.75;;;16.74;85.93
72560;BME280;62987;52.382;9.752;2022-09-09T06:57:16;100258.59;;;17.02;85.34
72560;BME280;62987;52.382;9.752;2022-09-09T07:00:05;100250.41;;;17.04;84.28
72560;BME280;62987;52.382;9.752;2022-09-09T07:02:33;100257.44;;;17.17;85.16
72560;BME280;62987;52.382;9.752;2022-09-09T07:05:08;100255.28;;;17.45;83.16
72560;BME280;62987;52.382;9.752;2022-09-09T07:07:37;100249.72;;;18.26;80.36
72560;BME280;62987;52.382;9.752;2022-09-09T07:10:07;100250.09;;;19.90;73.94
72560;BME280;62987;52.382;9.752;2022-09-09T07:12:36;100242.06;;;20.50;69.87
72560;BME280;62987;52.382;9.752;2022-09-09T07:15:09;100239.09;;;22.15;63.54
72560;BME280;62987;52.382;9.752;2022-09-09T07:17:40;100238.13;;;22.33;62.84
72560;BME280;62987;52.382;9.752;2022-09-09T07:20:10;100238.72;;;20.67;68.21
72560;BME280;62987;52.382;9.752;2022-09-09T07:22:39;100237.66;;;22.11;64.44
72560;BME280;62987;52.382;9.752;2022-09-09T07:25:08;100263.22;;;21.42;64.72
72560;BME280;62987;52.382;9.752;2022-09-09T07:27:37;100253.44;;;21.78;63.09
72560;BME280;62987;52.382;9.752;2022-09-09T07:30:06;100246.22;;;23.06;59.08
72560;BME280;62987;52.382;9.752;2022-09-09T07:32:34;100266.53;;;20.48;67.49
72560;BME280;62987;52.382;9.752;2022-09-09T07:35:03;100268.59;;;19.95;70.60
72560;BME280;62987;52.382;9.752;2022-09-09T07:37:35;100268.97;;;19.81;70.52
72560;BME280;62987;52.382;9.752;2022-09-09T07:40:04;100254.78;;;21.55;64.47
72560;BME280;62987;52.382;9.752;2022-09-09T07:42:33;100264.44;;;20.52;66.38
72560;BME280;62987;52.382;9.752;2022-09-09T07:45:03;100255.53;;;20.00;70.70
72560;BME280;62987;52.382;9.752;2022-09-09T07:47:32;100254.72;;;19.79;70.23
72560;BME280;62987;52.382;9.752;2022-09-09T07:50:01;100257.31;;;19.60;72.39
72560;BME280;62987;52.382;9.752;2022-09-09T07:52:30;100255.75;;;19.57;72.34
72560;BME280;62987;52.382;9.752;2022-09-09T07:55:04;100266.78;;;19.75;71.11
72560;BME280;62987;52.382;9.752;2022-09-09T07:57:33;100270.81;;;19.90;68.62
72560;BME280;62987;52.382;9.752;2022-09-09T08:00:02;100270.56;;;19.63;69.39
72560;BME280;62987;52.382;9.752;2022-09-09T08:02:38;100276.66;;;19.65;69.60
72560;BME280;62987;52.382;9.752;2022-09-09T08:05:08;100268.41;;;19.87;69.38
72560;BME280;62987;52.382;9.752;2022-09-09T08:07:38;100270.31;;;19.96;68.94
72560;BME280;62987;52.382;9.752;2022-09-09T08:10:08;100280.63;;;20.52;67.12
72560;BME280;62987;52.382;9.752;2022-09-09T08:12:40;100282.94;;;20.66;66.99
72560;BME280;62987;52.382;9.752;2022-09-09T08:15:28;100276.47;;;20.08;68.31
72560;BME280;62987;52.382;9.752;2022-09-09T08:17:57;100279.81;;;20.21;69.40
72560;BME280;62987;52.382;9.752;2022-09-09T08:20:26;100273.69;;;20.68;66.66
72560;BME280;62987;52.382;9.752;2022-09-09T08:22:55;100281.72;;;20.99;64.18
72560;BME280;62987;52.382;9.752;2022-09-09T08:25:24;100269.91;;;21.29;63.54
72560;BME280;62987;52.382;9.752;2022-09-09T08:27:53;100270.91;;;21.37;63.42
72560;BME280;62987;52.382;9.752;2022-09-09T08:30:21;100269.50;;;21.24;64.29
72560;BME280;62987;52.382;9.752;2022-09-09T08:32:49;100279.09;;;20.59;64.57
72560;BME280;62987;52.382;9.752;2022-09-09T08:35:21;100276.13;;;20.31;67.08
72560;BME280;62987;52.382;9.752;2022-09-09T08:37:53;100279.50;;;20.14;67.54
72560;BME280;62987;52.382;9.752;2022-09-09T08:40:28;100290.69;;;20.10;67.91
72560;BME280;62987;52.382;9.752;2022-09-09T08:43:00;100280.91;;;20.18;66.94
72560;BME280;62987;52.382;9.752;2022-09-09T08:45:34;100292.84;;;20.16;66.24
72560;BME280;62987;52.382;9.752;2022-09-09T08:48:22;100294.41;;;20.18;65.71
72560;BME280;62987;52.382;9.752;2022-09-09T08:50:57;100290.41;;;20.33;65.74
72560;BME280;62987;52.382;9.752;2022-09-09T08:53:38;100299.19;;;20.35;64.90
72560;BME280;62987;52.382;9.752;2022-09-09T08:56:13;100300.91;;;20.37;64.35
72560;BME280;62987;52.382;9.752;2022-09-09T08:58:47;100310.50;;;20.20;64.08
72560;BME280;62987;52.382;9.752;2022-09-09T09:04:44;100306.63;;;20.43;63.63
72560;BME280;62987;52.382;9.752;2022-09-09T09:07:25;100304.75;;;20.74;63.63
72560;BME280;62987;52.382;9.752;2022-09-09T09:10:04;100307.22;;;20.47;62.65
72560;BME280;62987;52.382;9.752;2022-09-09T09:12:58;100304.97;;;20.52;62.87
72560;BME280;62987;52.382;9.752;2022-09-09T09:15:32;100307.84;;;20.60;62.88
72560;BME280;62987;52.382;9.752;2022-09-09T09:18:05;100306.97;;;20.69;63.23
72560;BME280;62987;52.382;9.752;2022-09-09T09:20:42;100309.94;;;21.16;61.97
72560;BME280;62987;52.382;9.752;2022-09-09T09:23:21;100303.91;;;21.02;62.85
72560;BME280;62987;52.382;9.752;2022-09-09T09:25:56;100296.97;;;21.00;60.69
72560;BME280;62987;52.382;9.752;2022-09-09T09:28:29;100309.88;;;20.96;61.30
72560;BME280;62987;52.382;9.752;2022-09-09T09:31:08;100294.72;;;21.24;60.38
72560;BME280;62987;52.382;9.752;2022-09-09T09:33:46;100303.81;;;21.42;60.14
72560;BME280;62987;52.382;9.752;2022-09-09T09:36:15;100298.09;;;21.45;59.14
72560;BME280;62987;52.382;9.752;2022-09-09T09:38:54;100303.66;;;21.44;58.73
72560;BME280;62987;52.382;9.752;2022-09-09T09:41:47;100301.25;;;22.16;58.31
72560;BME280;62987;52.382;9.752;2022-09-09T09:44:25;100301.00;;;22.64;57.16
72560;BME280;62987;52.382;9.752;2022-09-09T09:47:06;100301.53;;;22.78;56.25
72560;BME280;62987;52.382;9.752;2022-09-09T09:49:36;100290.78;;;23.39;55.25
72560;BME280;62987;52.382;9.752;2022-09-09T09:52:05;100282.34;;;23.24;56.37
72560;BME280;62987;52.382;9.752;2022-09-09T09:54:38;100285.75;;;22.91;55.48
72560;BME280;62987;52.382;9.752;2022-09-09T09:57:09;100285.75;;;22.91;56.01
72560;BME280;62987;52.382;9.752;2022-09-09T09:59:40;100282.16;;;22.73;55.64
72560;BME280;62987;52.382;9.752;2022-09-09T10:02:24;100281.94;;;23.01;55.99
72560;BME280;62987;52.382;9.752;2022-09-09T10:05:03;100285.81;;;23.17;55.36
72560;BME280;62987;52.382;9.752;2022-09-09T10:07:34;100274.72;;;23.45;54.87
72560;BME280;62987;52.382;9.752;2022-09-09T10:10:05;100276.13;;;23.14;55.26
72560;BME280;62987;52.382;9.752;2022-09-09T10:12:42;100257.03;;;23.41;54.07
72560;BME280;62987;52.382;9.752;2022-09-09T10:15:26;100271.72;;;23.13;54.64
72560;BME280;62987;52.382;9.752;2022-09-09T10:18:04;100272.84;;;22.75;53.83
72560;BME280;62987;52.382;9.752;2022-09-09T10:20:39;100271.69;;;22.50;54.27
72560;BME280;62987;52.382;9.752;2022-09-09T10:23:23;100270.38;;;22.82;54.37
72560;BME280;62987;52.382;9.752;2022-09-09T10:26:01;100243.28;;;22.99;53.62
72560;BME280;62987;52.382;9.752;2022-09-09T10:28:40;100274.03;;;22.73;54.87
72560;BME280;62987;52.382;9.752;2022-09-09T10:31:22;100269.59;;;22.44;55.17
72560;BME280;62987;52.382;9.752;2022-09-09T10:33:59;100268.50;;;22.10;56.66
72560;BME280;62987;52.382;9.752;2022-09-09T10:36:30;100276.19;;;22.05;56.72
72560;BME280;62987;52.382;9.752;2022-09-09T10:39:03;100281.63;;;21.85;57.31
72560;BME280;62987;52.382;9.752;2022-09-09T10:41:42;100277.84;;;21.59;58.23
72560;BME280;62987;52.382;9.752;2022-09-09T10:44:23;100267.19;;;21.48;58.19
72560;BME280;62987;52.382;9.752;2022-09-09T10:47:16;100265.72;;;21.73;58.86
72560;BME280;62987;52.382;9.752;2022-09-09T10:50:03;100273.47;;;21.58;57.70
72560;BME280;62987;52.382;9.752;2022-09-09T10:52:48;100282.84;;;21.54;57.88
72560;BME280;62987;52.382;9.752;2022-09-09T10:55:24;100295.13;;;21.48;58.22
72560;BME280;62987;52.382;9.752;2022-09-09T10:57:58;100278.88;;;21.58;58.02
72560;BME280;62987;52.382;9.752;2022-09-09T11:00:31;100284.69;;;21.63;57.67
72560;BME280;62987;52.382;9.752;2022-09-09T11:03:06;100286.19;;;21.85;57.85
72560;BME280;62987;52.382;9.752;2022-09-09T11:05:42;100262.72;;;21.66;57.97
72560;BME280;62987;52.382;9.752;2022-09-09T11:08:15;100271.44;;;21.70;58.06
72560;BME280;62987;52.382;9.752;2022-09-09T11:10:51;100280.69;;;21.67;59.25
72560;BME280;62987;52.382;9.752;2022-09-09T11:13:26;100292.84;;;21.25;63.01
72560;BME280;62987;52.382;9.752;2022-09-09T11:16:01;100288.81;;;20.90;62.74
72560;BME280;62987;52.382;9.752;2022-09-09T11:18:36;100254.63;;;20.60;62.34
72560;BME280;62987;52.382;9.752;2022-09-09T11:21:12;100277.13;;;20.61;64.76
72560;BME280;62987;52.382;9.752;2022-09-09T11:23:45;100268.66;;;20.45;67.71
72560;BME280;62987;52.382;9.752;2022-09-09T11:26:20;100281.00;;;20.38;70.60
72560;BME280;62987;52.382;9.752;2022-09-09T11:31:46;100300.16;;;19.53;72.94
72560;BME280;62987;52.382;9.752;2022-09-09T11:34:34;100312.72;;;19.11;75.91
72560;BME280;62987;52.382;9.752;2022-09-09T11:40:09;100326.31;;;18.22;77.64
72560;BME280;62987;52.382;9.752;2022-09-09T11:42:42;100312.34;;;17.72;75.44
72560;BME280;62987;52.382;9.752;2022-09-09T11:45:20;100309.03;;;17.34;80.76
72560;BME280;62987;52.382;9.752;2022-09-09T11:47:53;100324.50;;;16.71;81.84
72560;BME280;62987;52.382;9.752;2022-09-09T11:50:34;100298.50;;;16.23;84.33
72560;BME280;62987;52.382;9.752;2022-09-09T11:56:03;100320.59;;;16.39;81.61
72560;BME280;62987;52.382;9.752;2022-09-09T11:58:37;100317.25;;;16.35;81.09
72560;BME280;62987;52.382;9.752;2022-09-09T12:01:24;100315.28;;;16.50;81.78
72560;BME280;62987;52.382;9.752;2022-09-09T12:04:04;100298.00;;;16.42;81.47
72560;BME280;62987;52.382;9.752;2022-09-09T12:06:44;100304.09;;;16.56;83.64
72560;BME280;62987;52.382;9.752;2022-09-09T12:09:23;100296.16;;;16.55;82.72
72560;BME280;62987;52.382;9.752;2022-09-09T12:11:53;100292.94;;;16.62;82.46
72560;BME280;62987;52.382;9.752;2022-09-09T12:14:37;100282.31;;;16.48;80.64
72560;BME280;62987;52.382;9.752;2022-09-09T12:17:16;100302.00;;;16.72;82.81
72560;BME280;62987;52.382;9.752;2022-09-09T12:19:46;100291.34;;;16.84;83.02
72560;BME280;62987;52.382;9.752;2022-09-09T12:22:25;100302.19;;;17.06;82.53
72560;BME280;62987;52.382;9.752;2022-09-09T12:25:06;100292.78;;;17.35;81.68
72560;BME280;62987;52.382;9.752;2022-09-09T12:27:42;100305.00;;;17.74;79.11
72560;BME280;62987;52.382;9.752;2022-09-09T12:30:15;100306.28;;;18.15;79.07
72560;BME280;62987;52.382;9.752;2022-09-09T12:32:43;100307.09;;;18.49;79.84
72560;BME280;62987;52.382;9.752;2022-09-09T12:35:17;100303.19;;;18.53;76.55
72560;BME280;62987;52.382;9.752;2022-09-09T12:37:50;100290.56;;;18.64;75.07
72560;BME280;62987;52.382;9.752;2022-09-09T12:40:23;100301.94;;;19.11;76.60
72560;BME280;62987;52.382;9.752;2022-09-09T12:42:51;100293.38;;;19.38;75.33
72560;BME280;62987;52.382;9.752;2022-09-09T12:45:20;100286.78;;;19.51;73.67
72560;BME280;62987;52.382;9.752;2022-09-09T12:47:52;100281.16;;;19.54;72.17
72560;BME280;62987;52.382;9.752;2022-09-09T12:50:22;100281.13;;;19.96;68.81
72560;BME280;62987;52.382;9.752;2022-09-09T12:52:56;100274.78;;;19.86;69.73
72560;BME280;62987;52.382;9.752;2022-09-09T12:55:28;100278.13;;;19.69;68.36
72560;BME280;62987;52.382;9.752;2022-09-09T12:57:59;100288.25;;;19.55;67.57
72560;BME280;62987;52.382;9.752;2022-09-09T13:00:32;100281.81;;;19.68;68.31
72560;BME280;62987;52.382;9.752;2022-09-09T13:03:01;100287.56;;;19.84;70.82
72560;BME280;62987;52.382;9.752;2022-09-09T13:05:35;100251.38;;;19.66;71.18
72560;BME280;62987;52.382;9.752;2022-09-09T13:08:06;100269.19;;;19.99;68.25
72560;BME280;62987;52.382;9.752;2022-09-09T13:10:39;100271.84;;;19.89;69.23
72560;BME280;62987;52.382;9.752;2022-09-09T13:13:29;100277.09;;;19.90;69.10
72560;BME280;62987;52.382;9.752;2022-09-09T13:16:01;100276.66;;;19.65;70.15
72560;BME280;62987;52.382;9.752;2022-09-09T13:18:31;100271.78;;;19.59;68.93
72560;BME280;62987;52.382;9.752;2022-09-09T13:21:01;100239.53;;;19.36;71.33
72560;BME280;62987;52.382;9.752;2022-09-09T13:23:33;100263.00;;;19.57;70.43
72560;BME280;62987;52.382;9.752;2022-09-09T13:26:04;100269.09;;;19.38;71.78
72560;BME280;62987;52.382;9.752;2022-09-09T13:28:33;100267.50;;;19.35;71.74
72560;BME280;62987;52.382;9.752;2022-09-09T13:31:03;100262.63;;;19.29;71.22
72560;BME280;62987;52.382;9.752;2022-09-09T13:33:34;100260.38;;;19.34;71.89
72560;BME280;62987;52.382;9.752;2022-09-09T13:36:06;100244.84;;;19.27;70.65